createdAt,value
2019-04-04T00:00:50.873Z,100434.17
2019-04-04T00:03:23.101Z,100430.67
2019-04-04T00:05:56.522Z,100419.32
2019-04-04T00:08:30.765Z,100425.89
2019-04-04T00:11:02.312Z,100426.30
2019-04-04T00:13:34.361Z,100430.25
2019-04-04T00:16:06.242Z,100433.31
2019-04-04T00:18:38.180Z,100432.89
2019-04-04T00:21:10.073Z,100438.13
2019-04-04T00:23:41.933Z,100426.77
2019-04-04T00:26:13.828Z,100427.69
2019-04-04T00:28:46.614Z,100423.69
2019-04-04T00:31:19.618Z,100426.71
2019-04-04T00:33:53.862Z,100425.86
2019-04-04T00:36:26.237Z,100432.39
2019-04-04T00:38:58.087Z,100414.50
2019-04-04T00:41:30.013Z,100421.50
2019-04-04T00:44:02.009Z,100409.33
2019-04-04T00:46:33.826Z,100413.67
2019-04-04T00:49:05.826Z,100418.07
2019-04-04T00:51:39.059Z,100414.62
2019-04-04T00:54:12.077Z,100404.98
2019-04-04T00:56:46.840Z,100426.82
2019-04-04T00:59:23.023Z,100410.28
2019-04-04T01:01:55.050Z,100416.02
2019-04-04T01:04:30.821Z,100416.86
2019-04-04T01:07:04.684Z,100419.44
2019-04-04T01:09:35.664Z,100419.08
2019-04-04T01:12:07.535Z,100413.44
2019-04-04T01:14:39.617Z,100416.98
2019-04-04T01:17:11.465Z,100410.39
2019-04-04T01:19:43.501Z,100415.71
2019-04-04T01:22:16.676Z,100402.55
2019-04-04T01:24:48.662Z,100405.17
2019-04-04T01:27:21.143Z,100403.45
2019-04-04T01:29:53.134Z,100410.91
2019-04-04T01:32:25.122Z,100408.28
2019-04-04T01:34:57.099Z,100405.20
2019-04-04T01:37:29.096Z,100407.41
2019-04-04T01:40:02.099Z,100402.16
2019-04-04T01:42:37.898Z,100405.63
2019-04-04T01:45:08.836Z,100395.14
2019-04-04T01:47:40.608Z,100398.22
2019-04-04T01:50:12.925Z,100404.36
2019-04-04T01:52:44.919Z,100403.48
2019-04-04T01:55:16.886Z,100400.88
2019-04-04T01:57:48.667Z,100395.66
2019-04-04T02:00:20.772Z,100395.27
2019-04-04T02:02:52.714Z,100404.48
2019-04-04T02:05:26.728Z,100401.00
2019-04-04T02:08:01.023Z,100400.55
2019-04-04T02:10:34.571Z,100396.14
2019-04-04T02:13:09.505Z,100396.63
2019-04-04T02:15:41.066Z,100393.20
2019-04-04T02:18:13.042Z,100407.16
2019-04-04T02:20:45.198Z,100395.83
2019-04-04T02:23:17.126Z,100390.56
2019-04-04T02:25:49.236Z,100388.34
2019-04-04T02:28:21.119Z,100388.77
2019-04-04T02:30:53.149Z,100382.24
2019-04-04T02:33:24.997Z,100379.20
2019-04-04T02:35:57.014Z,100378.34
2019-04-04T02:38:28.835Z,100381.88
2019-04-04T02:41:00.803Z,100389.34
2019-04-04T02:43:32.370Z,100388.89
2019-04-04T02:46:04.240Z,100380.59
2019-04-04T02:48:36.500Z,100377.52
2019-04-04T02:51:08.286Z,100376.69
2019-04-04T02:53:40.285Z,100374.09
2019-04-04T02:56:12.339Z,100384.59
2019-04-04T02:58:46.490Z,100381.06
2019-04-04T03:01:17.169Z,100383.69
2019-04-04T03:03:48.995Z,100381.08
2019-04-04T03:06:23.853Z,100378.92
2019-04-04T03:08:54.360Z,100378.48
2019-04-04T03:11:26.037Z,100380.28
2019-04-04T03:13:57.867Z,100378.07
2019-04-04T03:16:29.355Z,100373.72
2019-04-04T03:19:01.233Z,100368.95
2019-04-04T03:21:32.951Z,100375.52
2019-04-04T03:24:06.389Z,100366.77
2019-04-04T03:26:38.259Z,100375.09
2019-04-04T03:29:10.576Z,100369.87
2019-04-04T03:31:42.434Z,100373.80
2019-04-04T03:34:14.183Z,100370.33
2019-04-04T03:36:45.846Z,100368.14
2019-04-04T03:39:19.607Z,100365.09
2019-04-04T03:41:50.947Z,100372.55
2019-04-04T03:44:22.803Z,100365.09
2019-04-04T03:46:54.313Z,100363.81
2019-04-04T03:49:25.935Z,100358.98
2019-04-04T03:51:57.500Z,100366.44
2019-04-04T03:54:29.052Z,100363.81
2019-04-04T03:57:00.918Z,100360.34
2019-04-04T03:59:33.211Z,100383.52
2019-04-04T04:02:05.113Z,100367.34
2019-04-04T04:04:36.711Z,100372.14
2019-04-04T04:07:08.226Z,100370.86
2019-04-04T04:09:39.800Z,100362.98
2019-04-04T04:12:11.573Z,100363.45
2019-04-04T04:14:42.956Z,100364.34
2019-04-04T04:17:14.888Z,100367.81
2019-04-04T04:19:46.492Z,100368.26
2019-04-04T04:22:19.351Z,100379.63
2019-04-04T04:24:51.319Z,100376.13
2019-04-04T04:27:22.882Z,100380.48
2019-04-04T04:29:54.442Z,100378.79
2019-04-04T04:32:26.233Z,100379.22
2019-04-04T04:34:57.893Z,100381.39
2019-04-04T04:37:29.223Z,100383.13
2019-04-04T04:40:00.980Z,100378.80
2019-04-04T04:42:32.483Z,100377.92
2019-04-04T04:45:04.386Z,100375.72
2019-04-04T04:47:36.086Z,100386.19
2019-04-04T04:50:09.517Z,100379.20
2019-04-04T04:52:46.473Z,100379.19
2019-04-04T04:55:16.768Z,100390.55
2019-04-04T04:57:48.263Z,100373.97
2019-04-04T05:00:19.833Z,100376.16
2019-04-04T05:02:53.169Z,100387.05
2019-04-04T05:05:25.119Z,100391.89
2019-04-04T05:07:57.216Z,100390.13
2019-04-04T05:10:28.889Z,100400.59
2019-04-04T05:13:00.607Z,100396.66
2019-04-04T05:15:32.373Z,100397.95
2019-04-04T05:18:04.943Z,100408.02
2019-04-04T05:20:36.708Z,100411.51
2019-04-04T05:23:10.997Z,100398.80
2019-04-04T05:25:53.342Z,100400.40
2019-04-04T05:28:15.479Z,100397.73
2019-04-04T05:30:47.837Z,100410.07
2019-04-04T05:33:22.600Z,100398.70
2019-04-04T05:35:53.054Z,100394.35
2019-04-04T05:38:25.578Z,100401.33
2019-04-04T05:40:57.600Z,100394.30
2019-04-04T05:43:29.586Z,100397.28
2019-04-04T05:46:01.760Z,100401.36
2019-04-04T05:48:33.661Z,100402.03
2019-04-04T05:51:06.403Z,100395.07
2019-04-04T05:53:37.928Z,100391.85
2019-04-04T05:56:09.915Z,100385.33
2019-04-04T05:58:41.492Z,100388.59
2019-04-04T06:01:14.850Z,100389.91
2019-04-04T06:03:47.779Z,100385.63
2019-04-04T06:06:20.930Z,100389.11
2019-04-04T06:08:52.348Z,100392.11
2019-04-04T06:11:24.045Z,100395.02
2019-04-04T06:13:57.028Z,100399.17
2019-04-04T06:16:30.106Z,100391.78
2019-04-04T06:19:01.955Z,100389.16
2019-04-04T06:21:33.833Z,100396.75
2019-04-04T06:24:05.466Z,100389.94
2019-04-04T06:26:38.226Z,100395.67
2019-04-04T06:29:10.325Z,100393.03
2019-04-04T06:31:41.990Z,100391.25
2019-04-04T06:34:13.685Z,100395.28
2019-04-04T06:36:47.004Z,100389.95
2019-04-04T06:39:18.845Z,100396.04
2019-04-04T06:41:50.370Z,100387.80
2019-04-04T06:44:21.864Z,100398.82
2019-04-04T06:46:54.223Z,100395.16
2019-04-04T06:49:28.891Z,100395.91
2019-04-04T06:52:00.567Z,100393.58
2019-04-04T06:54:32.303Z,100392.06
2019-04-04T06:57:04.881Z,100379.86
2019-04-04T06:59:36.981Z,100359.88
2019-04-04T07:02:08.423Z,100362.23
2019-04-04T07:04:40.043Z,100367.32
2019-04-04T07:07:12.749Z,100369.14
2019-04-04T07:09:44.766Z,100361.06
2019-04-04T07:12:23.549Z,100352.84
2019-04-04T07:14:49.851Z,100351.34
2019-04-04T07:17:21.457Z,100347.27
2019-04-04T07:19:53.203Z,100350.53
2019-04-04T07:22:25.551Z,100343.63
2019-04-04T07:24:57.259Z,100350.41
2019-04-04T07:27:29.187Z,100354.73
2019-04-04T07:30:00.774Z,100335.70
2019-04-04T07:32:32.315Z,100335.70
2019-04-04T07:35:03.894Z,100341.78
2019-04-04T07:37:37.472Z,100328.12
2019-04-04T07:40:09.740Z,100344.45
2019-04-04T07:42:41.241Z,100336.25
2019-04-04T07:45:14.350Z,100334.50
2019-04-04T07:47:47.491Z,100331.28
2019-04-04T07:50:20.513Z,100317.39
2019-04-04T07:52:52.351Z,100324.50
2019-04-04T07:55:23.894Z,100339.66
2019-04-04T07:57:55.562Z,100328.67
2019-04-04T08:00:27.458Z,100333.81
2019-04-04T08:02:59.328Z,100319.77
2019-04-04T08:05:31.399Z,100336.19
2019-04-04T08:08:02.930Z,100317.28
2019-04-04T08:10:34.628Z,100325.57
2019-04-04T08:13:06.380Z,100324.22
2019-04-04T08:15:38.045Z,100323.59
2019-04-04T08:18:09.982Z,100323.17
2019-04-04T08:20:41.524Z,100332.55
2019-04-04T08:23:12.955Z,100324.08
2019-04-04T08:25:44.688Z,100328.44
2019-04-04T08:28:16.166Z,100332.78
2019-04-04T08:30:47.594Z,100296.55
2019-04-04T08:33:19.538Z,100303.78
2019-04-04T08:35:52.103Z,100303.78
2019-04-04T08:38:23.920Z,100309.67
2019-04-04T08:40:55.565Z,100300.46
2019-04-04T08:43:27.341Z,100302.41
2019-04-04T08:45:58.870Z,100311.95
2019-04-04T08:48:31.295Z,100322.22
2019-04-04T08:51:02.957Z,100317.11
2019-04-04T08:53:40.167Z,100300.59
2019-04-04T08:56:07.941Z,100305.10
2019-04-04T08:58:39.596Z,100292.75
2019-04-04T09:01:11.229Z,100316.04
2019-04-04T09:03:42.852Z,100307.97
2019-04-04T09:06:14.279Z,100309.41
2019-04-04T09:08:45.835Z,100305.89
2019-04-04T09:11:17.516Z,100297.06
2019-04-04T09:13:49.094Z,100277.16
2019-04-04T09:16:20.626Z,100288.53
2019-04-04T09:18:52.274Z,100284.88
2019-04-04T09:21:23.727Z,100296.88
2019-04-04T09:23:55.498Z,100300.58
2019-04-04T09:26:27.018Z,100285.59
2019-04-04T09:28:58.869Z,100296.40
2019-04-04T09:31:30.336Z,100303.72
2019-04-04T09:34:02.008Z,100283.63
2019-04-04T09:36:33.605Z,100288.97
2019-04-04T09:39:06.797Z,100293.23
2019-04-04T09:41:39.690Z,100279.03
2019-04-04T09:44:11.529Z,100276.23
2019-04-04T09:46:43.029Z,100273.19
2019-04-04T09:49:14.687Z,100280.33
2019-04-04T09:51:46.303Z,100280.70
2019-04-04T09:54:19.446Z,100270.52
2019-04-04T09:56:51.342Z,100273.39
2019-04-04T09:59:22.871Z,100274.83
2019-04-04T10:01:54.812Z,100268.52
2019-04-04T10:04:26.408Z,100261.97
2019-04-04T10:06:58.119Z,100267.44
2019-04-04T10:09:29.674Z,100265.22
2019-04-04T10:12:01.519Z,100252.02
2019-04-04T10:14:32.944Z,100251.72
2019-04-04T10:17:04.431Z,100238.58
2019-04-04T10:19:36.142Z,100242.81
2019-04-04T10:22:07.956Z,100232.01
2019-04-04T10:24:39.620Z,100218.30
2019-04-04T10:27:11.300Z,100232.45
2019-04-04T10:29:42.765Z,100225.58
2019-04-04T10:32:14.395Z,100227.54
2019-04-04T10:34:45.958Z,100228.73
2019-04-04T10:37:17.627Z,100219.73
2019-04-04T10:39:49.268Z,100214.33
2019-04-04T10:42:20.695Z,100221.30
2019-04-04T10:44:52.478Z,100212.19
2019-04-04T10:47:24.279Z,100212.55
2019-04-04T10:49:58.451Z,100220.08
2019-04-04T10:52:29.387Z,100216.50
2019-04-04T10:55:01.612Z,100207.74
2019-04-04T10:57:33.446Z,100217.95
2019-04-04T11:00:06.836Z,100197.75
2019-04-04T11:02:38.710Z,100204.50
2019-04-04T11:05:11.318Z,100193.77
2019-04-04T11:07:43.038Z,100193.41
2019-04-04T11:10:15.283Z,100205.03
2019-04-04T11:12:47.250Z,100194.42
2019-04-04T11:15:19.344Z,100192.00
2019-04-04T11:17:51.054Z,100193.71
2019-04-04T11:20:22.788Z,100205.33
2019-04-04T11:22:54.558Z,100189.14
2019-04-04T11:25:25.978Z,100203.77
2019-04-04T11:27:58.071Z,100182.97
2019-04-04T11:30:29.717Z,100197.05
2019-04-04T11:33:01.695Z,100167.03
2019-04-04T11:35:33.561Z,100175.81
2019-04-04T11:38:05.012Z,100165.48
2019-04-04T11:40:36.868Z,100173.75
2019-04-04T11:43:08.846Z,100175.65
2019-04-04T11:45:40.601Z,100173.84
2019-04-04T11:48:12.140Z,100170.28
2019-04-04T11:50:44.107Z,100156.16
2019-04-04T11:53:15.932Z,100153.68
2019-04-04T11:55:47.785Z,100175.83
2019-04-04T11:58:19.491Z,100171.55
2019-04-04T12:00:52.464Z,100163.86
2019-04-04T12:03:23.906Z,100165.09
2019-04-04T12:05:55.770Z,100158.11
2019-04-04T12:08:27.473Z,100145.48
2019-04-04T12:10:59.191Z,100154.61
2019-04-04T12:13:30.990Z,100139.54
2019-04-04T12:16:02.812Z,100145.72
2019-04-04T12:18:34.412Z,100142.04
2019-04-04T12:21:06.251Z,100139.65
2019-04-04T12:23:37.963Z,100146.06
2019-04-04T12:26:09.705Z,100144.07
2019-04-04T12:28:41.181Z,100143.31
2019-04-04T12:31:12.990Z,100137.52
2019-04-04T12:33:44.532Z,100141.77
2019-04-04T12:36:24.431Z,100155.63
2019-04-04T12:38:49.365Z,100141.53
2019-04-04T12:41:20.800Z,100142.36
2019-04-04T12:43:52.521Z,100137.03
2019-04-04T12:46:23.801Z,100126.80
2019-04-04T12:48:55.645Z,100127.23
2019-04-04T12:51:27.512Z,100126.92
2019-04-04T12:53:59.316Z,100123.33
2019-04-04T12:56:30.882Z,100121.75
2019-04-04T12:59:02.691Z,100127.34
2019-04-04T13:01:34.400Z,100125.04
2019-04-04T13:04:07.978Z,100127.22
2019-04-04T13:06:39.485Z,100120.56
2019-04-04T13:09:11.448Z,100132.13
2019-04-04T13:11:43.284Z,100124.81
2019-04-04T13:14:16.223Z,100117.84
2019-04-04T13:16:48.025Z,100112.45
2019-04-04T13:19:19.657Z,100120.69
2019-04-04T13:21:52.180Z,100113.34
2019-04-04T13:24:23.652Z,100142.84
2019-04-04T13:26:55.499Z,100118.24
2019-04-04T13:29:27.429Z,100120.12
2019-04-04T13:31:59.346Z,100111.83
2019-04-04T13:34:31.381Z,100113.11
2019-04-04T13:37:03.044Z,100111.83
2019-04-04T13:39:34.645Z,100101.98
2019-04-04T13:42:06.313Z,100120.36
2019-04-04T13:44:38.069Z,100104.33
2019-04-04T13:47:09.645Z,100095.26
2019-04-04T13:49:44.000Z,100107.41
2019-04-04T13:52:14.799Z,100110.02
2019-04-04T13:54:46.700Z,100110.34
2019-04-04T13:57:18.222Z,100106.77
2019-04-04T13:59:49.711Z,100119.18
2019-04-04T14:02:21.565Z,100116.71
2019-04-04T14:04:55.277Z,100102.48
2019-04-04T14:07:26.564Z,100120.52
2019-04-04T14:09:58.199Z,100105.71
2019-04-04T14:12:29.826Z,100121.77
2019-04-04T14:15:01.506Z,100107.46
2019-04-04T14:17:34.496Z,100107.09
2019-04-04T14:20:06.795Z,100106.34
2019-04-04T14:22:38.575Z,100107.73
2019-04-04T14:25:10.791Z,100117.78
2019-04-04T14:27:42.112Z,100114.96
2019-04-04T14:30:14.326Z,100109.30
2019-04-04T14:32:46.313Z,100128.22
2019-04-04T14:35:17.756Z,100113.64
2019-04-04T14:37:49.284Z,100111.11
2019-04-04T14:40:21.048Z,100113.55
2019-04-04T14:42:52.816Z,100140.94
2019-04-04T14:45:24.631Z,100110.31
2019-04-04T14:47:56.370Z,100124.93
2019-04-04T14:50:28.467Z,100114.48
2019-04-04T14:53:00.096Z,100115.05
2019-04-04T14:55:32.819Z,100110.98
2019-04-04T14:58:04.588Z,100111.36
2019-04-04T15:00:37.192Z,100111.27
2019-04-04T15:03:08.956Z,100119.31
2019-04-04T15:05:40.566Z,100102.73
2019-04-04T15:08:12.126Z,100103.09
2019-04-04T15:10:43.991Z,100106.36
2019-04-04T15:13:15.675Z,100098.97
2019-04-04T15:16:11.755Z,100105.11
2019-04-04T15:18:44.031Z,100100.03
2019-04-04T15:21:16.041Z,100108.23
2019-04-04T15:23:47.554Z,100117.64
2019-04-04T15:26:19.281Z,100106.39
2019-04-04T15:28:51.255Z,100107.06
2019-04-04T15:31:22.945Z,100118.64
2019-04-04T15:33:55.085Z,100110.10
2019-04-04T15:36:26.518Z,100106.31
2019-04-04T15:38:58.225Z,100110.77
2019-04-04T15:41:36.891Z,100114.72
2019-04-04T15:44:03.554Z,100113.13
2019-04-04T15:46:35.241Z,100104.38
2019-04-04T15:49:06.814Z,100111.36
2019-04-04T15:51:38.146Z,100113.02
2019-04-04T15:54:09.670Z,100118.72
2019-04-04T15:56:41.142Z,100111.48
2019-04-04T15:59:12.942Z,100114.30
2019-04-04T16:01:44.826Z,100112.88
2019-04-04T16:04:16.606Z,100110.94
2019-04-04T16:06:48.433Z,100105.42
2019-04-04T16:09:20.194Z,100119.99
2019-04-04T16:11:52.080Z,100115.47
2019-04-04T16:14:23.961Z,100112.02
2019-04-04T16:16:56.933Z,100108.28
2019-04-04T16:19:29.746Z,100118.88
2019-04-04T16:22:01.576Z,100125.08
2019-04-04T16:24:33.365Z,100114.89
2019-04-04T16:27:05.314Z,100119.41
2019-04-04T16:29:37.156Z,100111.67
2019-04-04T16:32:08.919Z,100122.97
2019-04-04T16:34:40.402Z,100134.53
2019-04-04T16:37:12.101Z,100142.96
2019-04-04T16:39:43.730Z,100126.09
2019-04-04T16:42:15.445Z,100115.48
2019-04-04T16:44:48.052Z,100108.33
2019-04-04T16:47:19.923Z,100128.12
2019-04-04T16:49:51.307Z,100128.56
2019-04-04T16:52:23.393Z,100128.56
2019-04-04T16:54:55.160Z,100127.63
2019-04-04T16:57:26.809Z,100130.39
2019-04-04T16:59:58.532Z,100140.91
2019-04-04T17:02:30.002Z,100143.81
2019-04-04T17:05:01.679Z,100145.13
2019-04-04T17:07:33.487Z,100140.86
2019-04-04T17:10:05.952Z,100149.66
2019-04-04T17:12:37.550Z,100143.09
2019-04-04T17:15:09.338Z,100151.16
2019-04-04T17:17:39.928Z,100157.34
2019-04-04T17:20:12.185Z,100153.81
2019-04-04T17:22:43.973Z,100171.23
2019-04-04T17:25:16.136Z,100185.75
2019-04-04T17:27:47.863Z,100157.86
2019-04-04T17:30:19.912Z,100168.33
2019-04-04T17:32:51.929Z,100170.85
2019-04-04T17:35:23.462Z,100183.55
2019-04-04T17:37:56.583Z,100175.70
2019-04-04T17:40:28.251Z,100174.99
2019-04-04T17:43:00.032Z,100177.86
2019-04-04T17:45:31.493Z,100190.45
2019-04-04T17:48:03.851Z,100189.99
2019-04-04T17:50:36.214Z,100185.84
2019-04-04T17:53:07.997Z,100192.78
2019-04-04T17:55:40.148Z,100194.53
2019-04-04T17:58:13.837Z,100187.90
2019-04-04T18:00:45.534Z,100194.44
2019-04-04T18:03:17.513Z,100191.88
2019-04-04T18:05:49.224Z,100209.48
2019-04-04T18:08:21.354Z,100210.56
2019-04-04T18:10:53.017Z,100208.97
2019-04-04T18:13:24.731Z,100211.98
2019-04-04T18:15:56.654Z,100216.14
2019-04-04T18:18:30.166Z,100223.36
2019-04-04T18:21:02.153Z,100223.20
2019-04-04T18:23:33.591Z,100215.88
2019-04-04T18:26:06.479Z,100219.03
2019-04-04T18:28:39.550Z,100234.18
2019-04-04T18:31:11.531Z,100221.44
2019-04-04T18:33:43.471Z,100223.72
2019-04-04T18:36:15.351Z,100226.45
2019-04-04T18:38:46.821Z,100229.59
2019-04-04T18:41:20.004Z,100227.47
2019-04-04T18:43:51.866Z,100224.98
2019-04-04T18:46:23.116Z,100233.47
2019-04-04T18:48:54.660Z,100236.59
2019-04-04T18:51:26.294Z,100230.98
2019-04-04T18:53:58.227Z,100232.50
2019-04-04T18:56:29.703Z,100237.43
2019-04-04T18:59:01.249Z,100244.61
2019-04-04T19:01:33.090Z,100246.02
2019-04-04T19:04:04.676Z,100253.27
2019-04-04T19:06:36.273Z,100259.66
2019-04-04T19:09:15.002Z,100257.31
2019-04-04T19:11:45.006Z,100247.41
2019-04-04T19:14:17.295Z,100273.20
2019-04-04T19:16:47.899Z,100260.31
2019-04-04T19:19:18.077Z,100266.16
2019-04-04T19:21:49.718Z,100264.02
2019-04-04T19:24:21.473Z,100260.92
2019-04-04T19:26:53.245Z,100261.97
2019-04-04T19:29:24.852Z,100259.84
2019-04-04T19:31:56.543Z,100269.59
2019-04-04T19:34:28.347Z,100256.97
2019-04-04T19:37:00.096Z,100262.94
2019-04-04T19:39:32.108Z,100268.11
2019-04-04T19:42:05.295Z,100275.24
2019-04-04T19:44:37.086Z,100255.44
2019-04-04T19:47:08.880Z,100257.03
2019-04-04T19:49:40.451Z,100260.95
2019-04-04T19:52:12.112Z,100257.03
2019-04-04T19:54:43.947Z,100262.33
2019-04-04T19:57:16.850Z,100262.66
2019-04-04T19:59:50.434Z,100254.05
2019-04-04T20:02:22.151Z,100261.50
2019-04-04T20:04:53.692Z,100267.00
2019-04-04T20:07:25.221Z,100259.91
2019-04-04T20:09:56.735Z,100274.95
2019-04-04T20:12:28.419Z,100262.38
2019-04-04T20:15:00.218Z,100273.73
2019-04-04T20:17:31.717Z,100267.23
2019-04-04T20:20:03.315Z,100268.94
2019-04-04T20:22:35.451Z,100263.76
2019-04-04T20:25:07.206Z,100257.59
2019-04-04T20:27:38.780Z,100271.20
2019-04-04T20:30:14.117Z,100262.22
2019-04-04T20:32:44.873Z,100271.96
2019-04-04T20:35:16.642Z,100269.77
2019-04-04T20:37:48.445Z,100284.36
2019-04-04T20:40:19.869Z,100269.38
2019-04-04T20:42:53.136Z,100277.37
2019-04-04T20:45:24.899Z,100285.64
2019-04-04T20:47:56.661Z,100288.56
2019-04-04T20:50:28.300Z,100284.81
2019-04-04T20:53:00.011Z,100284.70
2019-04-04T20:55:31.716Z,100285.54
2019-04-04T20:58:03.406Z,100296.51
2019-04-04T21:00:35.126Z,100293.86
2019-04-04T21:03:06.792Z,100296.02
2019-04-04T21:05:38.602Z,100298.37
2019-04-04T21:08:10.459Z,100301.73
2019-04-04T21:10:42.418Z,100299.05
2019-04-04T21:13:14.372Z,100302.79
2019-04-04T21:15:46.342Z,100307.53
2019-04-04T21:18:17.943Z,100300.25
2019-04-04T21:20:49.747Z,100298.44
2019-04-04T21:23:21.599Z,100310.10
2019-04-04T21:25:53.276Z,100298.10
2019-04-04T21:28:25.136Z,100306.20
2019-04-04T21:30:57.017Z,100311.64
2019-04-04T21:33:28.757Z,100318.90
2019-04-04T21:36:00.191Z,100321.19
2019-04-04T21:38:32.271Z,100319.84
2019-04-04T21:41:03.776Z,100318.23
2019-04-04T21:43:36.479Z,100326.70
2019-04-04T21:46:08.077Z,100315.92
2019-04-04T21:48:40.062Z,100327.56
2019-04-04T21:51:11.805Z,100329.42
2019-04-04T21:53:43.563Z,100334.81
2019-04-04T21:56:15.067Z,100328.34
2019-04-04T21:58:47.749Z,100329.05
2019-04-04T22:01:19.461Z,100336.90
2019-04-04T22:03:53.137Z,100329.98
2019-04-04T22:06:25.162Z,100334.47
2019-04-04T22:08:57.016Z,100330.95
2019-04-04T22:11:28.716Z,100343.55
2019-04-04T22:14:00.512Z,100333.02
2019-04-04T22:16:32.407Z,100339.28
2019-04-04T22:19:04.402Z,100345.52
2019-04-04T22:21:36.181Z,100341.64
2019-04-04T22:24:09.119Z,100350.44
2019-04-04T22:26:40.917Z,100348.33
2019-04-04T22:29:13.235Z,100343.48
2019-04-04T22:31:45.168Z,100345.26
2019-04-04T22:34:16.781Z,100343.70
2019-04-04T22:36:48.644Z,100347.34
2019-04-04T22:39:20.194Z,100344.90
2019-04-04T22:41:52.315Z,100351.17
2019-04-04T22:44:34.059Z,100352.02
2019-04-04T22:46:57.624Z,100357.97
2019-04-04T22:49:29.399Z,100359.77
2019-04-04T22:52:01.754Z,100353.28
2019-04-04T22:54:33.288Z,100355.58
2019-04-04T22:57:05.076Z,100359.17
2019-04-04T22:59:36.696Z,100366.61
2019-04-04T23:02:08.256Z,100366.53
2019-04-04T23:04:40.042Z,100361.53
2019-04-04T23:07:11.863Z,100360.75
2019-04-04T23:09:43.866Z,100360.69
2019-04-04T23:12:15.545Z,100369.17
2019-04-04T23:14:48.624Z,100363.77
2019-04-04T23:17:20.356Z,100362.95
2019-04-04T23:19:52.342Z,100363.30
2019-04-04T23:22:23.971Z,100355.48
2019-04-04T23:24:55.673Z,100351.09
2019-04-04T23:27:27.482Z,100357.44
2019-04-04T23:29:59.203Z,100362.33
2019-04-04T23:32:31.289Z,100359.19
2019-04-04T23:35:02.915Z,100356.84
2019-04-04T23:37:34.682Z,100357.40
2019-04-04T23:40:06.849Z,100364.63
2019-04-04T23:42:38.785Z,100362.37
2019-04-04T23:45:10.649Z,100368.05
2019-04-04T23:47:43.585Z,100363.28
2019-04-04T23:50:15.431Z,100363.23
2019-04-04T23:52:47.175Z,100368.28
2019-04-04T23:55:18.980Z,100370.04
2019-04-04T23:57:50.637Z,100368.72
